Time;durP1;ratioP1;P1;durP2;ratioP2;P2;SDS_P1;SDS_P2;PMS_P1;PMS_P2;Temp;Humidity;BMP_temperature;BMP_pressure;BME280_temperature;BME280_humidity;BME280_pressure;Samples;Min_cycle;Max_cycle;Signal;HPM_P1;HPM_P2
2021/08/21 00:00:05;;;;;;;6.20;4.30;;;15.70;99.90;;;;;;5034335;28;20220;-69
2021/08/21 00:02:32;;;;;;;6.57;4.63;;;15.70;99.90;;;;;;5034099;28;20191;-69
2021/08/21 00:04:58;;;;;;;5.77;4.20;;;15.60;99.90;;;;;;5034599;28;20419;-69
2021/08/21 00:07:23;;;;;;;5.70;4.70;;;15.60;99.90;;;;;;5033785;28;20900;-69
2021/08/21 00:09:49;;;;;;;8.90;4.83;;;15.60;99.90;;;;;;5034057;28;20165;-69
2021/08/21 00:12:14;;;;;;;6.80;5.30;;;15.60;99.90;;;;;;5033681;28;20603;-69
2021/08/21 00:14:40;;;;;;;4.37;3.97;;;15.50;99.90;;;;;;5033575;28;20225;-69
2021/08/21 00:17:06;;;;;;;5.47;5.00;;;15.60;99.90;;;;;;5033743;28;20157;-70
2021/08/21 00:19:31;;;;;;;5.80;5.20;;;15.50;99.90;;;;;;5033725;28;20188;-70
2021/08/21 00:21:57;;;;;;;5.23;4.70;;;15.50;99.90;;;;;;5052424;28;20200;-70
2021/08/21 00:24:22;;;;;;;6.37;4.97;;;15.50;99.90;;;;;;5053753;28;20160;-70
2021/08/21 00:26:48;;;;;;;8.97;6.83;;;15.50;99.90;;;;;;5053666;28;20172;-69
2021/08/21 00:29:14;;;;;;;6.37;4.90;;;15.50;99.90;;;;;;5053374;28;20160;-69
2021/08/21 00:31:39;;;;;;;6.83;4.70;;;15.40;99.90;;;;;;5053582;28;20167;-69
2021/08/21 00:34:05;;;;;;;6.90;5.67;;;15.40;99.90;;;;;;5053326;28;20250;-69
2021/08/21 00:36:31;;;;;;;5.97;5.37;;;15.40;99.90;;;;;;5052866;28;20171;-69
2021/08/21 00:38:56;;;;;;;7.10;4.30;;;15.40;99.90;;;;;;5052231;28;20275;-69
2021/08/21 00:41:22;;;;;;;5.50;4.43;;;15.40;99.90;;;;;;5052989;28;20210;-69
2021/08/21 00:43:48;;;;;;;5.40;4.90;;;15.40;99.90;;;;;;5053081;28;20153;-69
2021/08/21 00:46:13;;;;;;;5.97;4.60;;;15.40;99.90;;;;;;5047817;28;20650;-69
2021/08/21 00:48:39;;;;;;;5.60;5.10;;;15.40;99.90;;;;;;5033136;28;20396;-69
2021/08/21 00:51:05;;;;;;;5.50;4.70;;;15.40;99.90;;;;;;5032404;28;20680;-69
2021/08/21 00:53:32;;;;;;;6.00;5.10;;;15.40;99.90;;;;;;5033531;28;20603;-69
2021/08/21 00:55:59;;;;;;;8.47;5.70;;;15.40;99.90;;;;;;5051680;28;20647;-69
2021/08/21 00:58:26;;;;;;;6.57;5.20;;;15.40;99.90;;;;;;5052598;28;20409;-69
2021/08/21 01:00:53;;;;;;;6.27;4.70;;;15.40;99.90;;;;;;5053015;28;20736;-69
2021/08/21 01:03:19;;;;;;;5.30;4.90;;;15.40;99.90;;;;;;5052804;28;21205;-69
2021/08/21 01:05:45;;;;;;;6.30;5.43;;;15.40;99.90;;;;;;5052792;28;20397;-69
2021/08/21 01:08:10;;;;;;;5.13;4.63;;;15.40;99.90;;;;;;5052875;28;20892;-69
2021/08/21 01:10:36;;;;;;;7.50;5.53;;;15.40;99.90;;;;;;5051813;28;20478;-69
2021/08/21 01:13:02;;;;;;;4.90;4.40;;;15.40;99.90;;;;;;5052068;28;20557;-69
2021/08/21 01:15:28;;;;;;;5.50;4.93;;;15.40;99.90;;;;;;5052559;28;20154;-69
2021/08/21 01:17:55;;;;;;;4.90;3.97;;;15.40;99.90;;;;;;5052538;28;20485;-69
2021/08/21 01:20:23;;;;;;;6.80;5.90;;;15.40;99.90;;;;;;5036969;28;20211;-69
2021/08/21 01:22:49;;;;;;;6.20;5.57;;;15.40;99.90;;;;;;5032778;28;20443;-69
2021/08/21 01:25:21;;;;;;;8.30;6.40;;;15.30;99.90;;;;;;5032592;28;20445;-69
2021/08/21 01:27:47;;;;;;;6.10;5.20;;;15.30;99.90;;;;;;5033701;28;20156;-69
2021/08/21 01:30:13;;;;;;;6.50;4.70;;;15.30;99.90;;;;;;5032643;28;20524;-69
2021/08/21 01:32:39;;;;;;;5.90;5.00;;;15.30;99.90;;;;;;5032445;28;20169;-69
2021/08/21 01:35:05;;;;;;;5.60;5.00;;;15.20;99.90;;;;;;5032451;28;20171;-69
2021/08/21 01:37:31;;;;;;;5.40;4.90;;;15.20;99.90;;;;;;5032480;28;20520;-69
2021/08/21 01:39:57;;;;;;;6.10;5.10;;;15.20;99.90;;;;;;5032443;28;20398;-69
2021/08/21 01:42:23;;;;;;;6.83;4.77;;;15.20;99.90;;;;;;5032199;28;20218;-69
2021/08/21 01:44:49;;;;;;;7.80;6.80;;;15.20;99.90;;;;;;5033317;28;20433;-69
2021/08/21 01:47:16;;;;;;;6.97;5.30;;;15.20;99.90;;;;;;5032306;28;20400;-69
2021/08/21 01:49:42;;;;;;;5.30;4.80;;;15.10;99.90;;;;;;5047314;28;20509;-69
2021/08/21 01:52:08;;;;;;;6.30;4.70;;;15.10;99.90;;;;;;5052350;28;20761;-69
2021/08/21 01:54:35;;;;;;;5.63;4.57;;;15.10;99.90;;;;;;5052087;28;20402;-69
2021/08/21 01:57:02;;;;;;;6.07;5.47;;;15.10;99.90;;;;;;5052221;28;20408;-69
2021/08/21 01:59:30;;;;;;;6.13;4.90;;;15.10;99.90;;;;;;5052126;28;20426;-69
2021/08/21 02:01:57;;;;;;;5.40;4.90;;;15.00;99.90;;;;;;5050230;28;21037;-69
2021/08/21 02:04:24;;;;;;;5.47;4.80;;;15.00;99.90;;;;;;5055679;28;20393;-69
2021/08/21 02:06:50;;;;;;;4.53;3.83;;;15.00;99.90;;;;;;5056359;28;20412;-69
2021/08/21 02:09:19;;;;;;;4.40;4.00;;;14.90;99.90;;;;;;5055854;28;20402;-69
2021/08/21 02:11:46;;;;;;;5.90;4.10;;;14.90;99.90;;;;;;5056001;28;20394;-69
2021/08/21 02:14:12;;;;;;;6.70;4.80;;;14.90;99.90;;;;;;5056047;28;20448;-69
2021/08/21 02:16:38;;;;;;;4.23;3.83;;;14.90;99.90;;;;;;5055804;28;20517;-69
2021/08/21 02:19:04;;;;;;;6.23;4.53;;;14.90;99.90;;;;;;5051388;28;20521;-69
2021/08/21 02:21:30;;;;;;;5.77;4.80;;;14.90;99.90;;;;;;5035986;28;20472;-69
2021/08/21 02:23:58;;;;;;;6.33;5.07;;;14.80;99.90;;;;;;5035851;28;20183;-69
2021/08/21 02:26:25;;;;;;;6.37;5.30;;;14.80;99.90;;;;;;5035739;28;20625;-69
2021/08/21 02:28:50;;;;;;;6.43;5.67;;;14.80;99.90;;;;;;5035996;28;20404;-69
2021/08/21 02:31:16;;;;;;;7.37;5.40;;;14.80;99.90;;;;;;5035620;28;20398;-69
2021/08/21 02:33:41;;;;;;;6.80;5.80;;;14.80;99.90;;;;;;5035707;28;20523;-69
2021/08/21 02:36:07;;;;;;;7.97;6.00;;;14.70;99.90;;;;;;5036818;28;20184;-69
2021/08/21 02:38:33;;;;;;;7.30;6.07;;;14.70;99.90;;;;;;5035643;28;20221;-69
2021/08/21 02:40:58;;;;;;;8.87;6.33;;;14.70;99.90;;;;;;5035399;28;20270;-69
2021/08/21 02:43:24;;;;;;;9.10;6.50;;;14.70;99.90;;;;;;5035611;28;20156;-69
2021/08/21 02:45:49;;;;;;;5.90;4.73;;;14.70;99.90;;;;;;5035357;28;20240;-69
2021/08/21 02:48:15;;;;;;;4.70;4.07;;;14.60;99.90;;;;;;5035530;28;20202;-69
2021/08/21 02:50:41;;;;;;;5.43;4.90;;;14.60;99.90;;;;;;5045749;28;20174;-69
2021/08/21 02:53:07;;;;;;;4.93;4.30;;;14.60;99.90;;;;;;5054440;28;20938;-68
2021/08/21 02:55:32;;;;;;;6.47;5.43;;;14.60;99.90;;;;;;5055190;28;20887;-68
2021/08/21 02:57:58;;;;;;;5.53;4.43;;;14.60;99.90;;;;;;5055569;28;20255;-68
2021/08/21 03:00:23;;;;;;;5.77;4.07;;;14.60;99.90;;;;;;5055051;28;20190;-69
2021/08/21 03:02:49;;;;;;;6.00;5.40;;;14.50;99.90;;;;;;5054962;28;20204;-68
2021/08/21 03:05:14;;;;;;;6.40;5.60;;;14.50;99.90;;;;;;5055153;28;20163;-68
2021/08/21 03:07:40;;;;;;;8.90;6.10;;;14.50;99.90;;;;;;5054996;28;20166;-69
2021/08/21 03:10:07;;;;;;;6.53;5.97;;;14.50;99.90;;;;;;5053415;28;20178;-69
2021/08/21 03:12:33;;;;;;;6.60;5.80;;;14.50;99.90;;;;;;5054833;28;20184;-68
2021/08/21 03:14:59;;;;;;;7.47;6.70;;;14.50;99.90;;;;;;5054400;28;20897;-69
2021/08/21 03:17:24;;;;;;;7.87;5.80;;;14.50;99.90;;;;;;5054879;28;20253;-68
2021/08/21 03:19:50;;;;;;;7.57;6.23;;;14.50;99.90;;;;;;5043382;28;20532;-69
2021/08/21 03:22:16;;;;;;;8.40;6.73;;;14.40;99.90;;;;;;5034737;28;20552;-68
2021/08/21 03:24:41;;;;;;;8.30;6.40;;;14.50;99.90;;;;;;5034857;28;20253;-68
2021/08/21 03:27:07;;;;;;;8.17;5.93;;;14.50;99.90;;;;;;5035861;28;20232;-69
2021/08/21 03:29:32;;;;;;;8.60;6.63;;;14.50;99.90;;;;;;5034654;28;20151;-69
2021/08/21 03:31:58;;;;;;;6.90;6.10;;;14.40;99.90;;;;;;5034802;28;20199;-68
2021/08/21 03:34:24;;;;;;;7.97;6.10;;;14.40;99.90;;;;;;5034651;28;20693;-69
2021/08/21 03:36:51;;;;;;;8.27;5.83;;;14.40;99.90;;;;;;5034592;28;20518;-68
2021/08/21 03:39:17;;;;;;;7.03;5.60;;;14.40;99.90;;;;;;5034733;28;20939;-69
2021/08/21 03:41:43;;;;;;;7.13;6.00;;;14.40;99.90;;;;;;5034220;28;20468;-69
2021/08/21 03:44:08;;;;;;;6.53;5.20;;;14.40;99.90;;;;;;5035521;28;20405;-69
2021/08/21 03:46:34;;;;;;;12.87;6.17;;;14.30;99.90;;;;;;5034393;28;20160;-69
2021/08/21 03:48:59;;;;;;;6.30;5.70;;;14.40;99.90;;;;;;5034503;28;20249;-69
2021/08/21 03:51:25;;;;;;;9.57;6.10;;;14.40;99.90;;;;;;5050618;28;20180;-68
2021/08/21 03:53:51;;;;;;;8.13;6.33;;;14.40;99.90;;;;;;5054411;28;20237;-68
2021/08/21 03:56:16;;;;;;;5.77;5.27;;;14.30;99.90;;;;;;5053844;28;20170;-68
2021/08/21 03:58:42;;;;;;;4.97;4.47;;;14.30;99.90;;;;;;5053982;28;20185;-69
2021/08/21 04:01:07;;;;;;;6.60;5.70;;;14.30;99.90;;;;;;5052444;28;20201;-68
2021/08/21 04:03:33;;;;;;;6.57;5.13;;;14.30;99.90;;;;;;5054557;28;20193;-69
2021/08/21 04:05:58;;;;;;;5.10;4.33;;;14.30;99.90;;;;;;5054059;28;20624;-69
2021/08/21 04:08:24;;;;;;;8.13;5.80;;;14.30;99.90;;;;;;5053855;28;20158;-69
2021/08/21 04:10:49;;;;;;;5.43;4.80;;;14.30;99.90;;;;;;5053745;28;20158;-68
2021/08/21 04:13:15;;;;;;;5.47;4.97;;;14.30;99.90;;;;;;5053711;28;20166;-69
2021/08/21 04:15:40;;;;;;;9.03;7.50;;;14.30;99.90;;;;;;5053968;28;20158;-69
2021/08/21 04:18:06;;;;;;;9.73;5.57;;;14.30;99.90;;;;;;5049650;28;20580;-69
2021/08/21 04:20:31;;;;;;;7.40;5.33;;;14.30;99.90;;;;;;5034194;28;20685;-68
2021/08/21 04:22:57;;;;;;;6.13;5.53;;;14.30;99.90;;;;;;5037287;28;20280;-68
2021/08/21 04:25:23;;;;;;;6.50;4.63;;;14.30;99.90;;;;;;5033002;28;20169;-68
2021/08/21 04:27:50;;;;;;;9.10;4.50;;;14.30;99.90;;;;;;5033611;28;20173;-68
2021/08/21 04:30:15;;;;;;;6.47;4.80;;;14.30;99.90;;;;;;5033609;28;20440;-68
2021/08/21 04:32:41;;;;;;;5.70;5.00;;;14.20;99.90;;;;;;5034040;28;20405;-69
2021/08/21 04:35:07;;;;;;;7.10;5.37;;;14.20;99.90;;;;;;5037449;28;20272;-69
2021/08/21 04:37:32;;;;;;;8.60;6.73;;;14.20;99.90;;;;;;5053295;28;20167;-69
2021/08/21 04:39:58;;;;;;;6.17;5.43;;;14.20;99.90;;;;;;5053249;28;20248;-69
2021/08/21 04:42:24;;;;;;;6.10;5.47;;;14.30;99.90;;;;;;5053055;28;20206;-69
2021/08/21 04:44:49;;;;;;;7.63;5.10;;;14.30;99.90;;;;;;5053257;28;20154;-68
2021/08/21 04:47:15;;;;;;;6.50;5.80;;;14.30;99.90;;;;;;5053649;28;20177;-69
2021/08/21 04:49:40;;;;;;;6.43;4.67;;;14.30;99.90;;;;;;5052927;28;20518;-69
2021/08/21 04:52:06;;;;;;;6.03;5.43;;;14.40;99.90;;;;;;5051366;28;20193;-69
2021/08/21 04:54:32;;;;;;;5.10;4.53;;;14.50;99.90;;;;;;5052909;28;20175;-68
2021/08/21 04:56:57;;;;;;;6.40;5.60;;;14.50;99.90;;;;;;5052726;28;20173;-68
2021/08/21 04:59:23;;;;;;;5.83;3.90;;;14.50;99.90;;;;;;5052826;28;20545;-68
2021/08/21 05:01:49;;;;;;;4.77;4.30;;;14.50;99.90;;;;;;5053426;28;20283;-69
2021/08/21 05:04:14;;;;;;;6.03;5.43;;;14.60;99.90;;;;;;5052950;28;20161;-68
2021/08/21 05:06:40;;;;;;;7.47;5.73;;;14.60;99.90;;;;;;5052843;28;20152;-68
2021/08/21 05:09:05;;;;;;;6.17;5.00;;;14.70;99.90;;;;;;5051034;28;20202;-69
2021/08/21 05:11:31;;;;;;;8.03;4.53;;;14.70;99.90;;;;;;5052860;28;20635;-69
2021/08/21 05:13:56;;;;;;;7.53;5.27;;;14.80;99.90;;;;;;5052750;28;20264;-69
2021/08/21 05:16:22;;;;;;;15.33;5.87;;;14.80;99.90;;;;;;5053360;28;20525;-69
2021/08/21 05:18:51;;;;;;;7.20;5.23;;;14.90;99.90;;;;;;5052699;28;20611;-69
2021/08/21 05:21:27;;;;;;;6.07;4.77;;;14.90;99.90;;;;;;5040001;28;20202;-69
2021/08/21 05:23:54;;;;;;;4.93;4.43;;;15.00;99.90;;;;;;5032762;28;20880;-68
2021/08/21 05:26:20;;;;;;;6.00;5.00;;;15.10;99.90;;;;;;5033646;28;20429;-68
2021/08/21 05:28:46;;;;;;;5.10;4.60;;;15.10;99.90;;;;;;5032700;28;20395;-68
2021/08/21 05:31:11;;;;;;;8.20;5.13;;;15.20;99.90;;;;;;5033315;28;20167;-69
2021/08/21 05:33:37;;;;;;;7.90;5.40;;;15.20;99.90;;;;;;5032594;28;20162;-69
2021/08/21 05:36:02;;;;;;;7.93;7.23;;;15.20;99.90;;;;;;5032480;28;20206;-69
2021/08/21 05:38:28;;;;;;;7.13;6.33;;;15.30;99.90;;;;;;5032561;28;20205;-68
2021/08/21 05:40:53;;;;;;;6.97;5.80;;;15.30;99.90;;;;;;5032407;28;20709;-69
2021/08/21 05:43:19;;;;;;;5.10;4.60;;;15.40;99.90;;;;;;5033561;28;20313;-68
2021/08/21 05:45:44;;;;;;;7.37;5.07;;;15.40;99.90;;;;;;5033125;28;20239;-69
2021/08/21 05:48:10;;;;;;;5.40;4.90;;;15.50;99.90;;;;;;5032462;28;20161;-69
2021/08/21 05:50:36;;;;;;;6.87;4.47;;;15.50;99.90;;;;;;5032484;28;20157;-69
2021/08/21 05:53:02;;;;;;;6.63;4.70;;;15.50;99.90;;;;;;5044316;28;20548;-69
2021/08/21 05:55:27;;;;;;;8.03;5.10;;;15.60;99.90;;;;;;5052344;28;20618;-69
2021/08/21 05:57:53;;;;;;;6.20;4.70;;;15.60;99.90;;;;;;5052336;28;20156;-68
2021/08/21 06:00:18;;;;;;;7.37;5.03;;;15.70;99.90;;;;;;5051111;28;20590;-69
2021/08/21 06:02:45;;;;;;;4.90;4.50;;;15.70;99.90;;;;;;5052171;28;20184;-69
2021/08/21 06:05:11;;;;;;;5.00;4.50;;;15.80;99.90;;;;;;5052040;28;20168;-69
2021/08/21 06:07:37;;;;;;;6.77;5.23;;;15.80;99.90;;;;;;5052269;28;20436;-68
2021/08/21 06:10:05;;;;;;;4.93;4.43;;;15.90;99.90;;;;;;5052099;28;20446;-69
2021/08/21 06:12:31;;;;;;;7.33;4.80;;;15.90;99.90;;;;;;5051997;28;20418;-68
2021/08/21 06:14:56;;;;;;;6.00;5.40;;;16.00;99.90;;;;;;5052565;28;20399;-69
2021/08/21 06:17:21;;;;;;;7.33;5.10;;;16.00;99.90;;;;;;5050360;28;20545;-69
2021/08/21 06:19:47;;;;;;;6.17;4.80;;;16.10;99.90;;;;;;5052063;28;20163;-69
2021/08/21 06:22:13;;;;;;;6.77;5.30;;;16.10;99.90;;;;;;5047929;28;20191;-68
2021/08/21 06:24:40;;;;;;;6.70;4.80;;;16.20;99.90;;;;;;5051978;28;20156;-69
2021/08/21 06:27:06;;;;;;;7.73;5.20;;;16.20;99.90;;;;;;5051978;28;20519;-68
2021/08/21 06:29:35;;;;;;;6.13;5.57;;;16.40;99.90;;;;;;5052260;28;20438;-69
2021/08/21 06:32:02;;;;;;;4.73;4.30;;;16.40;99.90;;;;;;5051951;28;20574;-69
2021/08/21 06:34:28;;;;;;;5.00;4.50;;;16.50;99.90;;;;;;5044363;28;20426;-69
2021/08/21 06:36:54;;;;;;;6.80;5.20;;;16.60;99.90;;;;;;5031902;28;20391;-69
2021/08/21 06:39:19;;;;;;;6.20;5.00;;;16.60;99.90;;;;;;5031987;28;20769;-69
2021/08/21 06:41:45;;;;;;;5.90;5.30;;;16.70;99.90;;;;;;5031876;28;20203;-68
2021/08/21 06:44:10;;;;;;;7.43;4.93;;;16.80;99.90;;;;;;5032512;28;20232;-69
2021/08/21 06:46:36;;;;;;;12.23;6.30;;;16.80;99.90;;;;;;5031688;28;20224;-69
2021/08/21 06:49:02;;;;;;;5.80;5.27;;;16.90;99.90;;;;;;5033262;28;20168;-69
2021/08/21 06:51:27;;;;;;;6.33;5.73;;;17.00;99.90;;;;;;5042275;28;20551;-68
2021/08/21 06:53:53;;;;;;;5.10;4.60;;;17.10;99.90;;;;;;5036097;28;20180;-69
2021/08/21 06:56:18;;;;;;;6.43;5.73;;;17.10;99.90;;;;;;5035600;28;20186;-69
2021/08/21 06:58:44;;;;;;;5.47;4.97;;;17.20;99.90;;;;;;5035797;28;20196;-69
2021/08/21 07:01:10;;;;;;;5.83;4.93;;;17.20;99.90;;;;;;5035329;28;20262;-68
2021/08/21 07:03:36;;;;;;;6.10;4.70;;;17.30;99.90;;;;;;5035229;28;20392;-69
2021/08/21 07:06:02;;;;;;;7.13;5.03;;;17.30;99.90;;;;;;5035408;28;20395;-69
2021/08/21 07:08:27;;;;;;;5.90;5.20;;;17.30;99.90;;;;;;5036489;28;20173;-69
2021/08/21 07:10:53;;;;;;;7.90;6.17;;;17.30;99.90;;;;;;5035197;28;20149;-69
2021/08/21 07:13:18;;;;;;;5.30;4.80;;;17.30;99.90;;;;;;5035696;28;20162;-69
2021/08/21 07:15:44;;;;;;;6.60;5.90;;;17.30;99.90;;;;;;5035008;28;20236;-69
2021/08/21 07:18:10;;;;;;;8.13;5.77;;;17.40;99.90;;;;;;5034419;28;20200;-68
2021/08/21 07:20:35;;;;;;;9.30;6.40;;;17.40;99.90;;;;;;5035357;28;20153;-69
2021/08/21 07:23:01;;;;;;;4.83;4.37;;;17.50;99.90;;;;;;5034824;28;20201;-69
2021/08/21 07:25:26;;;;;;;6.80;6.10;;;17.50;99.90;;;;;;5041522;28;20224;-69
2021/08/21 07:27:52;;;;;;;6.20;5.17;;;17.60;99.90;;;;;;5055293;28;20156;-69
2021/08/21 07:30:17;;;;;;;6.53;5.33;;;17.70;99.90;;;;;;5055305;28;20609;-69
2021/08/21 07:32:43;;;;;;;8.00;6.83;;;17.80;99.90;;;;;;5054744;28;20183;-69
2021/08/21 07:35:09;;;;;;;10.43;6.00;;;17.90;99.90;;;;;;5054847;28;20244;-69
2021/08/21 07:37:36;;;;;;;6.50;5.80;;;18.00;99.90;;;;;;5054452;28;20545;-69
2021/08/21 07:40:03;;;;;;;6.50;5.57;;;18.10;99.90;;;;;;5054644;28;20391;-69
2021/08/21 07:42:29;;;;;;;6.73;5.93;;;18.30;99.90;;;;;;5053096;28;20465;-69
2021/08/21 07:44:54;;;;;;;6.50;5.90;;;18.30;99.90;;;;;;5054816;28;20384;-69
2021/08/21 07:47:20;;;;;;;5.90;4.93;;;18.50;99.90;;;;;;5053212;28;20221;-69
2021/08/21 07:49:45;;;;;;;7.27;5.73;;;18.60;99.90;;;;;;5054426;28;20157;-69
2021/08/21 07:52:11;;;;;;;5.67;5.13;;;18.80;99.90;;;;;;5054086;28;20516;-69
2021/08/21 07:54:36;;;;;;;7.60;5.57;;;19.10;99.90;;;;;;5054337;28;20164;-69
2021/08/21 07:57:03;;;;;;;6.93;4.70;;;19.50;99.90;;;;;;5054604;28;20160;-69
2021/08/21 07:59:28;;;;;;;6.17;5.27;;;20.10;99.90;;;;;;5052282;28;20545;-69
2021/08/21 08:01:54;;;;;;;8.10;5.33;;;21.00;99.90;;;;;;5054061;28;20449;-69
2021/08/21 08:04:19;;;;;;;5.77;4.37;;;21.90;99.90;;;;;;5054076;28;20175;-69
2021/08/21 08:06:45;;;;;;;7.37;4.63;;;22.20;99.90;;;;;;5053893;28;20164;-69
2021/08/21 08:09:10;;;;;;;7.83;4.00;;;22.40;99.90;;;;;;5054073;28;20180;-69
2021/08/21 08:11:36;;;;;;;8.77;3.97;;;22.30;99.90;;;;;;5054489;28;20179;-69
2021/08/21 08:14:01;;;;;;;5.00;4.40;;;22.30;99.90;;;;;;5053928;28;20236;-69
2021/08/21 08:16:27;;;;;;;3.60;3.03;;;22.20;99.90;;;;;;5051564;28;20237;-69
2021/08/21 08:18:52;;;;;;;4.80;3.93;;;22.10;99.90;;;;;;5052758;28;20164;-69
2021/08/21 08:21:19;;;;;;;4.67;3.73;;;22.10;99.90;;;;;;5051289;28;20280;-69
2021/08/21 08:23:46;;;;;;;4.67;3.63;;;22.30;99.90;;;;;;5033766;28;20235;-69
2021/08/21 08:26:12;;;;;;;4.67;3.60;;;22.60;99.90;;;;;;5033777;28;20461;-70
2021/08/21 08:28:38;;;;;;;5.60;3.70;;;23.40;99.90;;;;;;5033589;28;20482;-69
2021/08/21 08:31:03;;;;;;;5.47;2.80;;;24.40;99.90;;;;;;5033565;28;20154;-70
2021/08/21 08:33:29;;;;;;;6.83;2.97;;;25.50;99.90;;;;;;5034671;28;20415;-70
2021/08/21 08:35:55;;;;;;;6.27;3.00;;;26.10;99.90;;;;;;5033511;28;20157;-70
2021/08/21 08:38:21;;;;;;;3.90;3.07;;;26.10;99.90;;;;;;5033539;28;20141;-70
2021/08/21 08:40:48;;;;;;;9.40;3.03;;;25.90;99.90;;;;;;5033615;28;20427;-70
2021/08/21 08:43:14;;;;;;;3.30;2.40;;;25.40;99.90;;;;;;5033316;28;20446;-70
2021/08/21 08:45:42;;;;;;;7.50;2.70;;;25.10;99.90;;;;;;5033303;28;20396;-70
2021/08/21 08:48:08;;;;;;;3.40;2.30;;;24.80;99.90;;;;;;5031899;28;20161;-70
2021/08/21 08:50:34;;;;;;;3.47;2.80;;;24.50;99.90;;;;;;5034336;28;20778;-69
2021/08/21 08:53:00;;;;;;;4.57;3.13;;;24.30;99.90;;;;;;5033432;28;20400;-70
2021/08/21 08:55:26;;;;;;;2.43;2.13;;;24.10;99.90;;;;;;5048785;28;20180;-69
2021/08/21 08:57:53;;;;;;;3.43;2.40;;;24.00;99.90;;;;;;5053080;28;20168;-69
2021/08/21 09:00:22;;;;;;;2.83;2.60;;;23.90;99.90;;;;;;5053086;28;20192;-69
2021/08/21 09:02:50;;;;;;;2.63;2.13;;;23.80;99.90;;;;;;5052936;28;20458;-69
2021/08/21 09:05:18;;;;;;;5.10;2.63;;;23.80;99.90;;;;;;5052901;28;20395;-69
2021/08/21 09:10:25;;;;;;;5.73;1.80;;;23.70;99.90;;;;;;5070012;28;20512;-71
2021/08/21 09:13:05;;;;;;;2.70;2.40;;;23.80;99.90;;;;;;5069862;28;20909;-71
2021/08/21 09:15:33;;;;;;;4.47;3.03;;;23.70;99.90;;;;;;5069625;28;20390;-71
2021/08/21 09:18:01;;;;;;;4.03;3.00;;;23.70;99.90;;;;;;5068141;28;20411;-71
2021/08/21 09:20:27;;;;;;;2.50;2.30;;;23.70;99.90;;;;;;5069446;28;20393;-70
2021/08/21 09:23:13;;;;;;;3.47;2.90;;;23.80;99.90;;;;;;5063891;28;20406;-71
2021/08/21 09:25:39;;;;;;;2.60;2.07;;;23.80;99.90;;;;;;5064041;28;20413;-71
2021/08/21 09:28:16;;;;;;;2.57;1.50;;;23.90;99.90;;;;;;5049653;28;20470;-71
2021/08/21 09:30:43;;;;;;;3.73;2.40;;;24.00;99.90;;;;;;5049546;28;20148;-70
2021/08/21 09:33:08;;;;;;;3.03;1.90;;;24.00;99.90;;;;;;5049403;28;20882;-71
2021/08/21 09:35:34;;;;;;;2.10;2.00;;;24.10;99.90;;;;;;5049415;28;20390;-71
2021/08/21 09:38:00;;;;;;;4.20;1.57;;;24.20;99.90;;;;;;5049774;28;20172;-70
2021/08/21 09:40:32;;;;;;;2.20;1.20;;;24.30;99.90;;;;;;5049573;28;20177;-70
2021/08/21 09:42:59;;;;;;;1.63;1.43;;;24.60;99.90;;;;;;5049851;28;20975;-71
2021/08/21 09:45:25;;;;;;;2.70;1.57;;;24.70;99.90;;;;;;5049177;28;20391;-71
2021/08/21 09:48:00;;;;;;;3.13;1.47;;;24.80;99.90;;;;;;5048029;28;20457;-71
2021/08/21 09:50:26;;;;;;;1.73;1.27;;;25.00;99.90;;;;;;5048956;28;20456;-71
2021/08/21 09:53:00;;;;;;;2.60;1.93;;;25.20;99.90;;;;;;5049645;28;20405;-71
2021/08/21 09:55:27;;;;;;;1.93;1.73;;;25.40;99.90;;;;;;5052178;28;20411;-71
2021/08/21 09:58:20;;;;;;;1.87;1.50;;;25.60;99.90;;;;;;5050213;28;20414;-71
2021/08/21 10:00:47;;;;;;;1.90;1.67;;;25.80;99.90;;;;;;5049084;28;20755;-71
2021/08/21 10:03:14;;;;;;;4.93;1.73;;;26.00;99.90;;;;;;5048962;28;20395;-71
2021/08/21 10:05:41;;;;;;;5.47;3.17;;;26.10;99.90;;;;;;5048882;28;20407;-71
2021/08/21 10:08:09;;;;;;;4.00;1.97;;;26.20;99.90;;;;;;5048905;28;20448;-71
2021/08/21 10:10:36;;;;;;;3.47;2.00;;;26.30;99.90;;;;;;5048736;28;20410;-71
2021/08/21 10:13:24;;;;;;;1.80;1.43;;;26.40;99.90;;;;;;5048867;28;20400;-71
2021/08/21 10:15:50;;;;;;;1.87;1.47;;;26.40;99.90;;;;;;5049619;28;20410;-71
2021/08/21 10:18:18;;;;;;;1.60;1.50;;;26.40;99.90;;;;;;5047268;28;20756;-71
2021/08/21 10:20:43;;;;;;;2.03;1.60;;;26.30;98.60;;;;;;5041339;28;20403;-71
2021/08/21 10:23:12;;;;;;;1.40;1.30;;;26.30;99.10;;;;;;5035395;28;20404;-71
2021/08/21 10:25:42;;;;;;;3.10;1.97;;;26.20;99.90;;;;;;5034864;28;20680;-71
2021/08/21 10:28:13;;;;;;;2.80;1.63;;;26.10;99.90;;;;;;5035064;28;20396;-71
2021/08/21 10:30:41;;;;;;;1.73;1.40;;;26.00;99.70;;;;;;5034928;28;20875;-71
2021/08/21 10:33:07;;;;;;;2.63;1.80;;;25.90;99.80;;;;;;5047346;28;20908;-71
2021/08/21 10:35:54;;;;;;;1.83;1.73;;;25.80;99.90;;;;;;5055333;28;20401;-71
2021/08/21 10:38:37;;;;;;;1.87;1.50;;;25.60;99.90;;;;;;5053875;28;20157;-71
2021/08/21 10:49:08;;;;;;;1.50;1.07;;;25.40;99.90;;;;;;5064196;28;20549;-72
2021/08/21 10:51:40;;;;;;;1.40;1.30;;;25.40;99.90;;;;;;5049861;28;20429;-71
2021/08/21 10:57:27;;;;;;;1.20;0.97;;;25.40;99.90;;;;;;5069786;28;20530;-71
2021/08/21 10:59:53;;;;;;;4.93;1.87;;;25.30;99.90;;;;;;5068770;28;20425;-71
2021/08/21 11:05:02;;;;;;;1.60;1.50;;;25.20;99.90;;;;;;5070988;28;20527;-72
2021/08/21 11:10:30;;;;;;;3.10;1.53;;;25.00;99.90;;;;;;5069837;28;20528;-71
2021/08/21 11:12:56;;;;;;;1.97;1.47;;;25.00;99.90;;;;;;5069864;28;20764;-71
2021/08/21 11:15:26;;;;;;;1.50;1.40;;;25.00;99.90;;;;;;5069975;28;20386;-71
2021/08/21 11:17:52;;;;;;;1.20;1.10;;;24.80;99.90;;;;;;5069493;28;20156;-71
2021/08/21 11:20:34;;;;;;;3.37;1.10;;;24.70;99.90;;;;;;5069108;28;20748;-71
2021/08/21 11:25:45;;;;;;;1.97;1.40;;;24.70;99.90;;;;;;5055244;28;20518;-71
2021/08/21 11:28:15;;;;;;;2.20;1.60;;;24.50;99.90;;;;;;5049894;28;20752;-71
2021/08/21 11:30:40;;;;;;;1.60;1.43;;;24.40;99.90;;;;;;5050006;28;20383;-71
2021/08/21 11:35:46;;;;;;;1.70;1.20;;;24.20;99.90;;;;;;5069812;28;21054;-71
2021/08/21 11:38:14;;;;;;;1.77;1.47;;;24.10;99.90;;;;;;5069936;28;20791;-71
2021/08/21 11:40:43;;;;;;;1.40;1.30;;;24.00;99.90;;;;;;5061070;28;20399;-71
2021/08/21 11:43:11;;;;;;;1.80;1.70;;;24.00;99.90;;;;;;5049988;28;20466;-70
2021/08/21 11:45:38;;;;;;;1.60;1.50;;;24.00;99.90;;;;;;5050199;28;20478;-71
2021/08/21 11:48:05;;;;;;;3.27;1.87;;;24.00;99.90;;;;;;5050182;28;20999;-71
2021/08/21 11:50:34;;;;;;;1.60;1.30;;;24.00;99.90;;;;;;5049707;28;20758;-71
2021/08/21 11:53:02;;;;;;;1.80;1.70;;;24.10;99.90;;;;;;5049478;28;20478;-71
2021/08/21 11:55:30;;;;;;;0.90;0.90;;;24.20;99.90;;;;;;5049247;28;20512;-71
2021/08/21 11:57:56;;;;;;;1.30;1.13;;;24.30;99.90;;;;;;5050542;28;20831;-71
2021/08/21 12:00:25;;;;;;;4.80;1.53;;;24.30;99.90;;;;;;5049341;28;20470;-71
2021/08/21 12:02:58;;;;;;;2.80;1.20;;;24.30;99.90;;;;;;5050009;28;20256;-71
2021/08/21 12:08:25;;;;;;;3.00;1.77;;;24.40;99.90;;;;;;5069886;28;20512;-71
2021/08/21 12:13:31;;;;;;;1.40;1.30;;;24.40;99.90;;;;;;5110321;27;20942;-71
2021/08/21 12:16:03;;;;;;;1.67;1.40;;;24.20;99.90;;;;;;5090475;28;20810;-71
2021/08/21 12:18:31;;;;;;;2.40;2.20;;;24.10;99.90;;;;;;5090240;28;20385;-71
2021/08/21 12:20:57;;;;;;;3.27;2.80;;;24.10;99.90;;;;;;5090075;28;20444;-71
2021/08/21 12:23:23;;;;;;;2.40;1.90;;;24.00;99.90;;;;;;5089794;28;20417;-71
2021/08/21 12:25:52;;;;;;;2.07;1.87;;;24.00;99.90;;;;;;5089745;28;20628;-71
2021/08/21 12:28:19;;;;;;;2.00;1.80;;;24.00;99.90;;;;;;5089644;28;20201;-71
2021/08/21 12:30:56;;;;;;;2.30;2.10;;;24.00;99.90;;;;;;5090040;28;20424;-72
2021/08/21 12:33:26;;;;;;;2.20;2.00;;;24.10;99.90;;;;;;5089543;28;20463;-71
2021/08/21 12:35:52;;;;;;;1.50;1.30;;;24.20;99.90;;;;;;5089490;28;20810;-71
2021/08/21 12:38:19;;;;;;;3.10;1.60;;;24.30;99.90;;;;;;5089646;28;20419;-71
2021/08/21 12:41:03;;;;;;;1.83;1.70;;;24.20;99.90;;;;;;5089366;28;20620;-71
2021/08/21 12:43:28;;;;;;;2.03;1.77;;;24.30;99.90;;;;;;5089672;28;20427;-71
2021/08/21 12:45:54;;;;;;;4.93;1.83;;;24.30;99.90;;;;;;5089817;28;20879;-71
2021/08/21 12:48:23;;;;;;;2.87;2.20;;;24.30;99.90;;;;;;5089142;28;20251;-71
2021/08/21 12:50:49;;;;;;;3.03;2.00;;;24.40;99.90;;;;;;5089559;28;20194;-71
2021/08/21 12:53:18;;;;;;;1.70;1.60;;;24.50;99.90;;;;;;5089232;28;20441;-71
2021/08/21 12:55:44;;;;;;;1.70;1.60;;;24.60;99.90;;;;;;5081020;28;20175;-71
2021/08/21 12:58:11;;;;;;;1.90;1.50;;;24.60;99.90;;;;;;5068872;28;20746;-71
2021/08/21 13:00:39;;;;;;;2.97;2.37;;;24.60;99.90;;;;;;5049739;28;20257;-72
2021/08/21 13:03:16;;;;;;;1.83;1.70;;;24.60;99.90;;;;;;5048974;28;20398;-71
2021/08/21 13:05:53;;;;;;;1.97;1.87;;;24.50;99.90;;;;;;5058913;28;20766;-71
2021/08/21 13:08:18;;;;;;;2.03;1.70;;;24.50;99.90;;;;;;5068718;28;20397;-71
2021/08/21 13:10:50;;;;;;;1.57;1.43;;;24.50;99.90;;;;;;5068721;28;20400;-71
2021/08/21 13:13:16;;;;;;;1.97;1.83;;;24.50;99.90;;;;;;5068731;28;20230;-71